LEBL/BCN METAR and TAF weather

Enter ICAO airport designator
Station Type Date Time Source
LEBL METAR 2021/04/13 23:00 UTC NOAA

LEBL 132300Z 00000KT 9999 FEW015 13/11 Q1022 NOSIG


Station Type Date Time Source
LEBL Decoded METAR 2021/04/13 23:00 UTC NOAA

Barcelona / Aeropuerto, Spain (LEBL) 41-17N 002-04E 6M
Apr 13, 2021 - 07:00 PM EDT / 2021.04.13 2300 UTC
Wind: Calm:0
Visibility: greater than 7 mile(s):0
Sky conditions: mostly clear
Temperature: 55 F (13 C)
Dew Point: 51 F (11 C)
Relative Humidity: 87%
Pressure (altimeter): 30.18 in. Hg (1022 hPa)
ob: LEBL 132300Z 00000KT 9999 FEW015 13/11 Q1022 NOSIG
cycle: 23

Station Type Date Time Source
LEBL TAF 2021/04/13 18:30 UTC NOAA

TAF LEBL 131700Z 1318/1418 18010KT 9999 FEW020 TX16/1412Z TN09/1406Z
TEMPO 1318/1320 21010KT
TEMPO 1320/1324 VRB04KT
BECMG 1400/1402 34007KT
TEMPO 1406/1410 07007KT
BECMG 1410/1412 10010KT

Example: see airport list